Time;durP1;ratioP1;P1;durP2;ratioP2;P2;SDS_P1;SDS_P2;PMS_P1;PMS_P2;Temp;Humidity;BMP_temperature;BMP_pressure;BME280_temperature;BME280_humidity;BME280_pressure;Samples;Min_cycle;Max_cycle;Signal;HPM_P1;HPM_P2
2023/06/12 00:00:12;;;;;;;6.03;5.50;;;19.70;54.00;;;;;;6113414;23;20017;-78
2023/06/12 00:02:38;;;;;;;5.60;5.05;;;19.60;54.80;;;;;;6118348;23;20024;-80
2023/06/12 00:05:04;;;;;;;9.20;5.82;;;19.30;55.60;;;;;;6090834;23;20032;-79
2023/06/12 00:07:30;;;;;;;6.63;5.25;;;19.30;55.30;;;;;;6115488;23;20123;-79
2023/06/12 00:09:56;;;;;;;10.55;4.95;;;19.20;56.20;;;;;;6092818;23;20009;-79
2023/06/12 00:12:21;;;;;;;8.30;5.78;;;19.30;55.80;;;;;;6067845;23;20340;-79
2023/06/12 00:14:47;;;;;;;9.27;5.03;;;19.20;55.10;;;;;;6114490;23;20367;-78
2023/06/12 00:17:12;;;;;;;7.90;5.25;;;19.20;55.10;;;;;;6091400;23;20009;-78
2023/06/12 00:19:38;;;;;;;6.47;5.85;;;19.10;54.90;;;;;;6113513;23;20025;-79
2023/06/12 00:22:04;;;;;;;7.93;5.30;;;18.90;55.50;;;;;;6091726;23;20089;-79
2023/06/12 00:24:29;;;;;;;9.00;5.90;;;19.00;55.10;;;;;;6117549;23;20044;-78
2023/06/12 00:26:55;;;;;;;6.00;5.40;;;18.90;55.50;;;;;;6115615;23;20013;-78
2023/06/12 00:29:20;;;;;;;7.80;5.28;;;18.80;55.40;;;;;;6092614;23;20009;-78
2023/06/12 00:31:46;;;;;;;6.10;5.50;;;18.70;55.60;;;;;;6114141;23;20041;-78
2023/06/12 00:34:12;;;;;;;8.15;5.43;;;18.70;55.90;;;;;;6116432;23;20589;-78
2023/06/12 00:36:37;;;;;;;6.55;5.32;;;18.50;56.70;;;;;;6117910;23;20093;-79
2023/06/12 00:39:03;;;;;;;8.40;5.45;;;18.30;57.40;;;;;;6142720;23;20009;-79
2023/06/12 00:41:29;;;;;;;6.65;6.00;;;18.20;58.50;;;;;;6095428;23;20029;-79
2023/06/12 00:43:54;;;;;;;5.80;5.22;;;18.10;58.70;;;;;;6093890;23;20021;-79
2023/06/12 00:46:20;;;;;;;6.50;5.43;;;18.10;58.60;;;;;;6116172;23;20009;-79
2023/06/12 00:48:47;;;;;;;6.63;5.40;;;18.10;59.50;;;;;;6093169;23;20024;-79
2023/06/12 00:51:12;;;;;;;9.60;5.53;;;18.10;58.40;;;;;;6093756;23;20025;-79
2023/06/12 00:53:38;;;;;;;6.30;5.78;;;18.00;58.40;;;;;;6092578;23;20344;-79
2023/06/12 00:56:03;;;;;;;6.28;5.68;;;18.20;58.50;;;;;;6118724;23;20009;-79
2023/06/12 00:58:29;;;;;;;6.25;4.63;;;18.10;58.00;;;;;;6117452;23;20014;-79
2023/06/12 01:00:56;;;;;;;6.63;5.45;;;18.20;56.90;;;;;;6117587;23;20013;-79
2023/06/12 01:03:22;;;;;;;5.70;4.40;;;18.20;57.10;;;;;;6117626;23;20067;-78
2023/06/12 01:05:47;;;;;;;7.90;5.78;;;18.20;57.30;;;;;;6092946;23;20496;-79
2023/06/12 01:09:00;;;;;;;8.93;5.72;;;18.10;56.90;;;;;;6092581;23;20036;-78
2023/06/12 01:11:26;;;;;;;8.68;6.00;;;17.80;60.90;;;;;;6032782;23;20606;-78
2023/06/12 01:13:52;;;;;;;6.47;5.80;;;17.80;60.40;;;;;;6057751;23;20034;-79
2023/06/12 01:16:18;;;;;;;6.88;6.05;;;17.60;59.20;;;;;;6078288;23;20014;-79
2023/06/12 01:18:43;;;;;;;7.10;6.05;;;17.40;61.30;;;;;;6093127;23;20024;-79
2023/06/12 01:21:17;;;;;;;5.40;4.28;;;17.50;62.20;;;;;;6092652;23;20016;-79
2023/06/12 01:23:46;;;;;;;10.27;5.78;;;17.50;58.30;;;;;;6093197;23;20080;-79
2023/06/12 01:26:27;;;;;;;5.95;5.45;;;17.60;58.20;;;;;;6091974;23;20025;-79
2023/06/12 01:29:40;;;;;;;6.93;5.95;;;17.60;58.30;;;;;;6091700;23;20018;-78
2023/06/12 01:32:14;;;;;;;8.35;6.15;;;17.60;57.90;;;;;;6027812;23;20014;-79
2023/06/12 01:34:54;;;;;;;5.70;4.57;;;17.60;57.80;;;;;;6070563;23;20005;-78
2023/06/12 01:37:33;;;;;;;7.22;5.30;;;17.60;57.80;;;;;;6093086;23;20014;-78
2023/06/12 01:40:00;;;;;;;6.90;5.57;;;17.80;58.80;;;;;;6116940;23;20021;-79
2023/06/12 01:42:26;;;;;;;7.50;5.45;;;17.50;58.00;;;;;;6093196;23;20020;-78
2023/06/12 01:44:52;;;;;;;9.75;5.93;;;17.50;58.30;;;;;;6092422;23;20125;-78
2023/06/12 01:47:18;;;;;;;12.93;6.40;;;17.40;58.00;;;;;;6117233;23;20397;-78
2023/06/12 01:49:44;;;;;;;8.23;6.50;;;17.20;59.30;;;;;;6117609;23;20010;-78
2023/06/12 01:52:09;;;;;;;6.70;6.00;;;17.00;62.40;;;;;;6094343;23;20052;-78
2023/06/12 01:54:35;;;;;;;8.60;5.97;;;16.80;62.00;;;;;;6115585;23;20388;-79
2023/06/12 01:57:01;;;;;;;10.23;6.35;;;16.90;62.60;;;;;;6092947;23;20020;-78
2023/06/12 01:59:27;;;;;;;7.05;6.32;;;16.70;67.00;;;;;;6117469;23;20072;-78
2023/06/12 02:01:53;;;;;;;8.82;6.20;;;16.60;61.70;;;;;;6092877;23;20017;-78
2023/06/12 02:04:19;;;;;;;6.95;6.25;;;16.40;66.90;;;;;;6117291;23;20009;-78
2023/06/12 02:06:45;;;;;;;8.32;6.32;;;16.60;63.00;;;;;;6117361;23;20050;-78
2023/06/12 02:09:11;;;;;;;7.18;6.47;;;16.60;63.50;;;;;;6094169;23;20037;-78
2023/06/12 02:11:36;;;;;;;8.68;6.35;;;16.60;64.50;;;;;;6093243;23;20036;-79
2023/06/12 02:14:02;;;;;;;6.03;5.47;;;16.30;68.50;;;;;;6117045;23;20037;-79
2023/06/12 02:16:27;;;;;;;10.45;6.60;;;16.40;64.00;;;;;;6115597;23;20010;-79
2023/06/12 02:18:53;;;;;;;7.05;5.93;;;16.40;66.40;;;;;;6116774;23;20025;-79
2023/06/12 02:21:19;;;;;;;8.25;6.43;;;16.50;60.90;;;;;;6117843;23;20009;-79
2023/06/12 02:23:44;;;;;;;7.88;6.03;;;16.50;61.20;;;;;;6096167;23;20036;-79
2023/06/12 02:26:10;;;;;;;7.93;7.13;;;16.50;60.80;;;;;;6118739;23;20023;-79
2023/06/12 02:28:35;;;;;;;7.63;6.13;;;16.30;64.20;;;;;;6094873;23;20124;-80
2023/06/12 02:31:03;;;;;;;9.13;6.63;;;16.40;66.30;;;;;;6119310;23;20049;-79
2023/06/12 02:33:30;;;;;;;12.32;7.78;;;16.40;63.70;;;;;;6119746;23;20011;-79
2023/06/12 02:35:55;;;;;;;7.00;6.30;;;16.40;62.20;;;;;;6094054;23;20839;-80
2023/06/12 02:38:21;;;;;;;7.22;6.30;;;16.40;61.00;;;;;;6094017;23;20148;-80
2023/06/12 02:40:47;;;;;;;7.97;6.55;;;15.90;67.60;;;;;;6119768;23;20005;-80
2023/06/12 02:43:12;;;;;;;7.70;6.55;;;16.20;65.80;;;;;;6093852;23;20020;-80
2023/06/12 02:45:38;;;;;;;7.10;6.18;;;15.80;69.00;;;;;;6116852;23;20014;-80
2023/06/12 02:48:03;;;;;;;7.93;7.03;;;15.70;68.90;;;;;;6094898;23;20041;-79
2023/06/12 02:50:29;;;;;;;7.55;6.32;;;16.10;66.10;;;;;;6092790;23;20294;-80
2023/06/12 02:52:54;;;;;;;8.48;6.00;;;15.70;70.60;;;;;;6094401;23;20088;-79
2023/06/12 02:55:20;;;;;;;9.00;6.28;;;15.80;64.00;;;;;;6117542;23;20005;-80
2023/06/12 02:57:46;;;;;;;8.65;6.75;;;15.80;68.10;;;;;;6095128;23;20014;-80
2023/06/12 03:00:14;;;;;;;9.57;6.20;;;15.70;71.30;;;;;;6094655;23;20017;-80
2023/06/12 03:02:42;;;;;;;11.80;7.32;;;15.80;64.10;;;;;;6095075;23;20440;-80
2023/06/12 03:05:12;;;;;;;6.65;5.85;;;15.80;64.70;;;;;;6094766;23;20017;-79
2023/06/12 03:07:40;;;;;;;7.90;7.10;;;15.70;64.10;;;;;;6095614;23;20145;-79
2023/06/12 03:10:06;;;;;;;7.68;6.97;;;15.90;63.30;;;;;;6092803;23;20459;-80
2023/06/12 03:12:32;;;;;;;6.93;6.15;;;15.90;62.80;;;;;;6094335;23;20014;-80
2023/06/12 03:14:58;;;;;;;9.18;6.82;;;16.00;63.10;;;;;;6093387;23;20017;-81
2023/06/12 03:17:24;;;;;;;7.10;6.40;;;16.00;64.20;;;;;;6119144;23;20045;-80
2023/06/12 03:19:50;;;;;;;9.55;7.40;;;15.90;64.50;;;;;;6094747;23;20048;-80
2023/06/12 03:22:15;;;;;;;6.68;6.07;;;15.50;66.90;;;;;;6091543;23;20468;-81
2023/06/12 03:24:41;;;;;;;9.10;6.82;;;15.70;63.30;;;;;;6092956;23;20013;-80
2023/06/12 03:27:07;;;;;;;8.18;6.15;;;15.80;63.30;;;;;;6118078;23;20097;-80
2023/06/12 03:29:32;;;;;;;7.85;7.03;;;15.80;63.50;;;;;;6093304;23;20005;-81
2023/06/12 03:31:58;;;;;;;7.95;6.93;;;15.80;64.00;;;;;;6093394;23;20017;-80
2023/06/12 03:34:24;;;;;;;7.47;6.60;;;15.90;63.50;;;;;;6119113;23;20041;-81
2023/06/12 03:36:50;;;;;;;9.25;7.53;;;15.60;65.70;;;;;;6093874;23;20518;-80
2023/06/12 03:39:15;;;;;;;7.78;6.75;;;15.70;63.70;;;;;;6092608;23;20444;-80
2023/06/12 03:41:55;;;;;;;8.15;7.30;;;15.50;64.70;;;;;;6093206;23;20318;-80
2023/06/12 03:44:22;;;;;;;7.07;6.38;;;15.30;68.70;;;;;;6117502;23;20080;-80
2023/06/12 03:46:47;;;;;;;6.97;5.72;;;15.40;65.20;;;;;;6093181;23;20029;-81
2023/06/12 03:49:13;;;;;;;8.70;6.63;;;15.70;64.30;;;;;;6093606;23;20017;-80
2023/06/12 03:51:38;;;;;;;8.35;7.45;;;15.60;63.70;;;;;;6119069;23;20018;-80
2023/06/12 03:54:05;;;;;;;8.82;7.20;;;15.40;67.80;;;;;;6092929;23;20088;-82
2023/06/12 03:56:30;;;;;;;9.27;7.47;;;15.30;66.80;;;;;;6093985;23;20479;-82
2023/06/12 03:58:56;;;;;;;9.98;7.05;;;15.10;69.50;;;;;;6117033;23;20018;-82
2023/06/12 04:01:22;;;;;;;12.50;6.95;;;15.30;68.60;;;;;;6093057;23;20093;-82
2023/06/12 04:03:48;;;;;;;7.68;6.97;;;15.30;68.60;;;;;;6117797;23;20017;-82
2023/06/12 04:06:14;;;;;;;10.98;7.40;;;15.30;69.80;;;;;;6117342;23;20080;-82
2023/06/12 04:08:40;;;;;;;10.60;7.28;;;15.50;72.00;;;;;;6118242;23;20021;-80
2023/06/12 04:11:09;;;;;;;8.30;6.55;;;15.80;70.40;;;;;;6118163;23;20010;-78
2023/06/12 04:13:35;;;;;;;6.00;4.95;;;16.10;65.10;;;;;;6118512;23;20371;-78
2023/06/12 04:16:00;;;;;;;9.18;6.80;;;16.30;63.70;;;;;;6092222;23;20006;-78
2023/06/12 04:18:26;;;;;;;7.10;5.22;;;16.30;64.70;;;;;;6117362;23;20436;-78
2023/06/12 04:20:54;;;;;;;8.70;6.57;;;16.40;62.90;;;;;;6092136;23;20136;-78
2023/06/12 04:23:20;;;;;;;7.60;6.60;;;16.60;65.00;;;;;;6091585;23;20072;-79
2023/06/12 04:25:48;;;;;;;10.60;6.72;;;16.60;64.50;;;;;;6114121;23;20021;-79
2023/06/12 04:28:16;;;;;;;8.23;7.32;;;16.60;66.00;;;;;;6114462;23;20014;-78
2023/06/12 04:30:44;;;;;;;8.02;6.13;;;16.70;66.20;;;;;;6091502;23;20001;-78
2023/06/12 04:33:10;;;;;;;8.45;7.47;;;16.90;63.80;;;;;;6092602;23;20044;-79
2023/06/12 04:35:35;;;;;;;8.90;7.45;;;17.20;65.30;;;;;;6091879;23;20009;-78
2023/06/12 04:38:01;;;;;;;8.15;6.57;;;17.20;66.10;;;;;;6093159;23;20012;-79
2023/06/12 04:40:27;;;;;;;15.70;7.53;;;17.50;65.90;;;;;;6095095;23;20014;-78
2023/06/12 04:42:56;;;;;;;7.15;6.38;;;17.60;67.00;;;;;;6117124;23;20506;-78
2023/06/12 04:45:22;;;;;;;9.52;6.93;;;17.90;66.00;;;;;;6092899;23;20443;-79
2023/06/12 04:47:49;;;;;;;10.95;6.55;;;18.00;66.70;;;;;;6092677;23;20325;-78
2023/06/12 04:50:15;;;;;;;9.23;5.65;;;18.30;66.40;;;;;;6092323;23;20539;-78
2023/06/12 04:52:41;;;;;;;9.77;6.45;;;18.50;65.90;;;;;;6118061;23;20049;-78
2023/06/12 04:55:08;;;;;;;9.43;6.93;;;18.70;66.30;;;;;;6104039;23;20021;-77
2023/06/12 04:57:36;;;;;;;13.60;6.90;;;18.80;67.10;;;;;;6094478;23;20016;-78
2023/06/12 05:00:05;;;;;;;8.73;6.70;;;19.10;67.60;;;;;;6073267;23;20040;-77
2023/06/12 05:02:33;;;;;;;8.77;5.95;;;19.20;66.80;;;;;;6097464;23;20006;-77
2023/06/12 05:05:00;;;;;;;12.15;6.82;;;19.50;65.50;;;;;;6117617;23;20080;-78
2023/06/12 05:07:26;;;;;;;8.85;6.40;;;19.70;66.00;;;;;;6093034;23;20395;-77
2023/06/12 05:09:51;;;;;;;6.88;6.10;;;20.00;66.10;;;;;;6116892;23;20017;-77
2023/06/12 05:12:17;;;;;;;10.15;6.63;;;20.20;66.70;;;;;;6116983;23;20021;-77
2023/06/12 05:14:43;;;;;;;10.30;6.65;;;20.40;66.30;;;;;;6092361;23;20068;-77
2023/06/12 05:17:09;;;;;;;8.35;6.60;;;20.60;66.40;;;;;;6092655;23;20021;-77
2023/06/12 05:19:35;;;;;;;8.20;6.13;;;20.80;65.40;;;;;;6094056;23;20462;-77
2023/06/12 05:22:01;;;;;;;8.73;7.03;;;21.00;65.20;;;;;;6092611;23;20163;-77
2023/06/12 05:24:27;;;;;;;9.05;6.88;;;21.30;64.60;;;;;;6092311;23;20317;-77
2023/06/12 05:26:53;;;;;;;7.20;6.45;;;21.40;64.40;;;;;;6093823;23;20052;-78
2023/06/12 05:29:18;;;;;;;8.00;6.53;;;21.70;63.60;;;;;;6092973;23;20425;-77
2023/06/12 05:31:44;;;;;;;8.05;6.13;;;21.90;64.10;;;;;;6116855;23;20072;-77
2023/06/12 05:34:10;;;;;;;7.40;6.45;;;22.10;63.40;;;;;;6117184;23;20010;-79
2023/06/12 05:36:36;;;;;;;9.98;6.13;;;22.40;63.00;;;;;;6092542;23;20440;-79
2023/06/12 05:39:03;;;;;;;8.95;6.20;;;22.60;62.40;;;;;;6115085;23;20482;-79
2023/06/12 05:41:28;;;;;;;9.05;6.60;;;22.80;62.20;;;;;;6117106;23;20020;-79
2023/06/12 05:43:54;;;;;;;8.77;6.30;;;23.00;62.10;;;;;;6117641;23;20345;-79
2023/06/12 05:46:20;;;;;;;12.90;7.07;;;23.30;61.70;;;;;;6117908;23;20095;-78
2023/06/12 05:48:45;;;;;;;10.57;6.47;;;23.50;61.40;;;;;;6117685;23;20056;-77
2023/06/12 05:51:11;;;;;;;6.57;5.82;;;23.80;60.70;;;;;;6090869;23;21363;-77
2023/06/12 05:53:36;;;;;;;7.93;5.90;;;23.90;60.40;;;;;;6117002;23;20018;-77
2023/06/12 05:56:02;;;;;;;9.38;6.25;;;24.10;59.90;;;;;;6093168;23;20073;-80
2023/06/12 05:58:28;;;;;;;14.77;6.40;;;24.40;60.10;;;;;;6094532;23;20084;-79
2023/06/12 06:00:53;;;;;;;11.50;5.88;;;24.60;59.50;;;;;;6093554;23;20010;-79
2023/06/12 06:03:19;;;;;;;6.82;5.72;;;24.80;59.20;;;;;;6093136;23;20068;-79
2023/06/12 06:05:48;;;;;;;7.57;6.10;;;25.10;59.70;;;;;;6095539;23;20048;-79
2023/06/12 06:08:13;;;;;;;8.27;6.32;;;25.20;58.70;;;;;;6118992;23;20606;-79
2023/06/12 06:10:40;;;;;;;11.05;5.35;;;25.50;58.30;;;;;;6090177;23;20459;-79
2023/06/12 06:13:06;;;;;;;11.13;6.22;;;25.70;57.70;;;;;;6093914;23;20010;-79
2023/06/12 06:15:31;;;;;;;8.10;5.72;;;25.90;57.50;;;;;;6117158;23;20009;-80
2023/06/12 06:17:57;;;;;;;10.23;6.03;;;26.10;57.20;;;;;;6071090;23;20064;-78
2023/06/12 06:20:22;;;;;;;6.95;5.72;;;26.10;56.80;;;;;;6089436;23;20347;-79
2023/06/12 06:22:49;;;;;;;7.00;5.90;;;26.30;56.70;;;;;;6118320;23;20520;-78
2023/06/12 06:25:15;;;;;;;10.30;6.50;;;26.50;56.10;;;;;;6085377;23;20021;-79
2023/06/12 06:27:41;;;;;;;7.30;5.55;;;26.70;55.60;;;;;;6086233;23;20584;-78
2023/06/12 06:30:07;;;;;;;8.88;6.22;;;26.90;55.60;;;;;;6082317;23;20014;-78
2023/06/12 06:32:32;;;;;;;8.98;5.80;;;27.10;54.90;;;;;;6084454;23;20016;-78
2023/06/12 06:34:58;;;;;;;7.93;5.57;;;27.20;54.50;;;;;;6091209;23;20313;-78
2023/06/12 06:37:23;;;;;;;7.88;5.75;;;27.40;54.10;;;;;;6078448;23;20036;-78
2023/06/12 06:39:49;;;;;;;7.32;6.10;;;27.50;54.10;;;;;;6085691;23;20025;-78
2023/06/12 06:42:15;;;;;;;8.70;6.10;;;27.70;53.60;;;;;;6115378;23;20391;-78
2023/06/12 06:44:40;;;;;;;5.70;5.10;;;27.90;53.50;;;;;;6092687;23;20013;-79
2023/06/12 06:47:09;;;;;;;7.68;5.90;;;28.00;53.70;;;;;;6092258;23;20105;-79
2023/06/12 06:49:35;;;;;;;8.07;5.95;;;28.20;53.50;;;;;;6092691;23;20411;-79
2023/06/12 06:52:01;;;;;;;8.88;6.78;;;28.30;53.40;;;;;;6093863;23;20013;-79
2023/06/12 06:54:26;;;;;;;7.93;6.47;;;28.60;52.40;;;;;;6092864;23;20401;-79
2023/06/12 06:56:52;;;;;;;7.03;5.97;;;28.70;51.80;;;;;;6091443;23;20021;-79
2023/06/12 06:59:17;;;;;;;5.70;5.10;;;28.90;51.60;;;;;;6117148;23;20022;-80
2023/06/12 07:01:43;;;;;;;9.85;6.93;;;29.00;51.80;;;;;;6093630;23;20036;-80
2023/06/12 07:04:09;;;;;;;10.57;5.97;;;29.10;51.60;;;;;;6093525;23;20502;-79
2023/06/12 07:06:34;;;;;;;10.98;6.15;;;29.10;52.00;;;;;;6067160;23;20093;-79
2023/06/12 07:09:01;;;;;;;13.25;6.40;;;29.40;51.10;;;;;;6118164;23;20009;-79
2023/06/12 07:11:27;;;;;;;9.32;5.65;;;29.60;50.80;;;;;;6092885;23;20489;-79
2023/06/12 07:13:53;;;;;;;7.30;5.47;;;29.60;50.60;;;;;;6091955;23;20460;-79
2023/06/12 07:16:19;;;;;;;6.28;5.65;;;29.70;50.20;;;;;;6115904;23;20017;-80
2023/06/12 07:18:44;;;;;;;7.97;5.85;;;29.70;50.30;;;;;;6116328;23;20021;-79
2023/06/12 07:21:14;;;;;;;8.30;5.93;;;29.80;49.60;;;;;;6118049;23;20340;-80
2023/06/12 07:23:39;;;;;;;6.15;5.35;;;29.90;49.10;;;;;;6091605;23;20012;-81
2023/06/12 07:26:05;;;;;;;8.70;5.28;;;29.90;49.50;;;;;;6116036;23;20025;-80
2023/06/12 07:28:31;;;;;;;6.20;4.85;;;29.90;48.90;;;;;;6094396;23;20013;-80
2023/06/12 07:30:56;;;;;;;7.05;5.60;;;30.20;49.40;;;;;;6093155;23;20391;-80
2023/06/12 07:33:22;;;;;;;8.00;5.43;;;30.30;48.90;;;;;;6092105;23;20029;-80
2023/06/12 07:35:47;;;;;;;8.55;6.03;;;30.60;48.20;;;;;;6093213;23;20017;-80
2023/06/12 07:38:13;;;;;;;6.47;5.35;;;30.80;48.10;;;;;;6092727;23;20089;-80
2023/06/12 07:40:39;;;;;;;7.80;5.38;;;31.00;47.40;;;;;;6117602;23;21980;-79
2023/06/12 07:43:05;;;;;;;8.90;5.53;;;31.00;47.20;;;;;;6116139;23;20016;-79
2023/06/12 07:45:31;;;;;;;6.00;5.43;;;31.20;46.70;;;;;;6092914;23;20010;-79
2023/06/12 07:47:57;;;;;;;5.70;4.65;;;31.20;46.30;;;;;;6093418;23;20572;-80
2023/06/12 07:50:24;;;;;;;6.78;5.13;;;31.10;47.20;;;;;;6113981;23;20360;-80
2023/06/12 07:52:49;;;;;;;12.05;5.20;;;31.20;47.00;;;;;;6094062;23;20093;-80
2023/06/12 07:55:16;;;;;;;7.43;5.68;;;31.60;45.90;;;;;;6116810;23;20021;-79
2023/06/12 07:57:42;;;;;;;8.73;5.03;;;31.90;45.90;;;;;;6117564;23;20058;-79
2023/06/12 08:00:08;;;;;;;7.38;5.45;;;31.80;46.00;;;;;;6092871;23;20329;-80
2023/06/12 08:02:34;;;;;;;8.45;5.72;;;31.90;46.00;;;;;;6094931;23;20041;-79
2023/06/12 08:05:00;;;;;;;9.60;5.72;;;31.70;46.70;;;;;;6118131;23;20399;-79
2023/06/12 08:07:26;;;;;;;9.00;5.80;;;32.30;45.60;;;;;;6086371;23;20017;-80
2023/06/12 08:09:52;;;;;;;11.40;5.00;;;32.50;45.00;;;;;;6117709;23;20006;-79
2023/06/12 08:12:18;;;;;;;8.90;5.25;;;32.50;45.50;;;;;;6093282;23;20068;-80
2023/06/12 08:14:47;;;;;;;7.30;4.88;;;32.60;45.10;;;;;;6091854;23;20013;-79
2023/06/12 08:17:13;;;;;;;5.78;5.18;;;32.40;45.60;;;;;;6117783;23;20085;-80
2023/06/12 08:19:40;;;;;;;9.43;5.60;;;32.60;45.40;;;;;;6089682;23;20527;-81
2023/06/12 08:22:07;;;;;;;5.78;5.28;;;32.70;45.60;;;;;;6092821;23;20013;-79
2023/06/12 08:24:35;;;;;;;5.22;4.72;;;32.90;45.10;;;;;;6118584;23;20023;-79
2023/06/12 08:27:01;;;;;;;6.63;4.95;;;32.90;44.50;;;;;;6092857;23;20080;-80
2023/06/12 08:29:26;;;;;;;7.53;4.90;;;32.70;44.60;;;;;;6095198;23;20017;-80
2023/06/12 08:31:52;;;;;;;5.47;4.95;;;32.30;44.70;;;;;;6089125;23;20009;-80
2023/06/12 08:34:18;;;;;;;7.97;5.30;;;32.80;44.70;;;;;;6091349;23;20018;-80
2023/06/12 08:36:43;;;;;;;5.80;5.18;;;33.00;44.40;;;;;;6089558;23;20059;-80
2023/06/12 08:39:09;;;;;;;6.78;5.13;;;33.30;44.30;;;;;;6092405;23;20017;-80
2023/06/12 08:41:35;;;;;;;10.48;5.38;;;33.40;43.60;;;;;;6091841;23;20037;-81
2023/06/12 08:44:00;;;;;;;7.55;5.47;;;33.60;43.30;;;;;;6094497;23;20355;-80
2023/06/12 08:46:29;;;;;;;7.35;5.93;;;33.30;43.70;;;;;;6089060;23;20016;-80
2023/06/12 08:48:54;;;;;;;5.35;4.82;;;33.50;43.30;;;;;;6091393;23;20072;-80
2023/06/12 08:51:20;;;;;;;9.60;5.65;;;33.50;43.30;;;;;;6116391;23;20032;-79
2023/06/12 08:53:47;;;;;;;7.85;4.65;;;33.70;43.20;;;;;;6091816;23;20064;-80
2023/06/12 08:56:12;;;;;;;5.68;5.00;;;33.70;43.80;;;;;;6088323;23;20114;-81
2023/06/12 08:58:39;;;;;;;5.93;5.32;;;33.70;43.90;;;;;;6094202;23;20120;-80
2023/06/12 09:01:06;;;;;;;7.57;5.57;;;34.00;43.30;;;;;;6090909;23;20692;-80
2023/06/12 09:03:32;;;;;;;6.20;5.15;;;34.20;43.40;;;;;;6086644;23;20017;-81
2023/06/12 09:05:58;;;;;;;6.10;5.55;;;34.50;42.90;;;;;;6091110;23;20014;-81
2023/06/12 09:08:23;;;;;;;6.53;4.97;;;34.50;43.40;;;;;;6117765;23;20463;-82
2023/06/12 09:10:49;;;;;;;5.70;5.15;;;34.70;43.10;;;;;;6090992;23;20045;-81
2023/06/12 09:13:14;;;;;;;6.95;4.85;;;34.90;42.50;;;;;;6115298;23;20346;-81
2023/06/12 09:15:49;;;;;;;6.40;5.47;;;35.00;42.70;;;;;;6092919;23;20122;-82
2023/06/12 09:18:15;;;;;;;8.23;5.55;;;35.30;42.70;;;;;;6090204;23;20009;-81
2023/06/12 09:20:40;;;;;;;6.53;5.40;;;35.50;42.50;;;;;;6093392;23;20064;-82
2023/06/12 09:23:06;;;;;;;8.50;6.15;;;35.50;42.60;;;;;;6092148;23;20522;-81
2023/06/12 09:25:35;;;;;;;8.05;6.32;;;35.90;41.60;;;;;;6091949;23;20017;-81
2023/06/12 09:28:04;;;;;;;6.90;5.72;;;36.00;41.60;;;;;;6091712;23;20059;-82
2023/06/12 09:30:34;;;;;;;5.65;4.88;;;36.20;41.10;;;;;;6116371;23;20068;-82
2023/06/12 09:33:00;;;;;;;10.90;5.50;;;36.00;41.70;;;;;;6090561;23;20444;-84
2023/06/12 09:35:26;;;;;;;8.25;5.47;;;36.40;40.90;;;;;;6092421;23;20012;-81
2023/06/12 09:37:51;;;;;;;7.32;5.43;;;36.50;40.40;;;;;;6093074;23;20088;-82
2023/06/12 09:40:17;;;;;;;5.95;4.85;;;36.60;39.80;;;;;;6092038;23;20041;-82
2023/06/12 09:42:44;;;;;;;5.57;5.07;;;36.60;41.00;;;;;;6116175;23;20009;-82
2023/06/12 09:45:16;;;;;;;6.10;5.20;;;36.70;40.90;;;;;;6113857;23;20321;-83
2023/06/12 09:47:48;;;;;;;6.70;5.15;;;36.80;40.30;;;;;;6090278;23;20352;-83
2023/06/12 09:50:15;;;;;;;5.68;4.97;;;36.90;40.50;;;;;;6112959;23;20013;-83
2023/06/12 09:52:41;;;;;;;9.07;4.85;;;37.30;38.60;;;;;;6116353;23;20040;-82
2023/06/12 09:55:08;;;;;;;5.10;4.70;;;37.20;39.70;;;;;;6091137;23;20100;-83
2023/06/12 09:57:35;;;;;;;7.57;5.22;;;37.40;39.30;;;;;;6114744;23;20460;-84
2023/06/12 10:00:02;;;;;;;5.68;5.10;;;37.30;39.80;;;;;;6116548;23;20017;-83
2023/06/12 10:02:28;;;;;;;5.07;4.68;;;37.40;39.40;;;;;;6115946;23;20092;-82
2023/06/12 10:05:05;;;;;;;4.85;4.45;;;37.50;39.00;;;;;;6114304;23;20041;-83
2023/06/12 10:07:40;;;;;;;5.80;5.25;;;37.50;39.10;;;;;;6069424;23;20041;-82
2023/06/12 10:10:07;;;;;;;5.55;5.05;;;37.60;37.30;;;;;;6091028;23;20041;-83
2023/06/12 10:12:35;;;;;;;5.28;4.60;;;37.50;37.30;;;;;;6093059;23;20064;-82
2023/06/12 10:15:03;;;;;;;5.13;4.60;;;37.40;38.30;;;;;;6115258;23;20060;-83
2023/06/12 10:17:29;;;;;;;6.30;4.63;;;37.40;38.40;;;;;;6059518;23;20006;-83
2023/06/12 10:19:54;;;;;;;6.53;5.22;;;37.40;39.10;;;;;;6091535;23;20017;-82
2023/06/12 10:22:20;;;;;;;5.22;4.07;;;37.70;38.50;;;;;;6091519;23;20084;-83
2023/06/12 10:24:46;;;;;;;4.97;4.47;;;38.10;37.60;;;;;;6093072;23;20083;-82
2023/06/12 10:27:11;;;;;;;4.90;4.50;;;38.00;37.30;;;;;;6101686;23;20029;-82
2023/06/12 10:29:38;;;;;;;5.07;4.55;;;37.90;36.80;;;;;;6092827;23;20080;-82
2023/06/12 10:32:04;;;;;;;6.50;4.95;;;38.10;37.00;;;;;;6092110;23;20013;-83
2023/06/12 10:34:33;;;;;;;6.50;4.93;;;38.00;36.80;;;;;;6091071;23;20017;-83
2023/06/12 10:36:58;;;;;;;5.32;4.75;;;37.90;37.10;;;;;;6092305;23;20013;-83
2023/06/12 10:39:25;;;;;;;5.00;4.50;;;37.90;37.50;;;;;;6090729;23;20021;-83
2023/06/12 10:41:55;;;;;;;5.65;5.15;;;38.20;36.80;;;;;;6114560;23;20320;-83
2023/06/12 10:44:41;;;;;;;3.90;3.60;;;38.40;34.60;;;;;;6093058;23;20512;-83
2023/06/12 10:47:19;;;;;;;4.53;4.10;;;38.10;36.30;;;;;;6093073;23;20329;-84
2023/06/12 10:49:58;;;;;;;5.55;4.60;;;38.10;36.80;;;;;;6118174;23;20013;-83
2023/06/12 10:52:24;;;;;;;4.82;4.43;;;38.40;35.80;;;;;;6089177;23;20029;-84
2023/06/12 10:55:20;;;;;;;4.53;4.18;;;38.70;36.30;;;;;;6092123;23;20017;-83
2023/06/12 10:57:56;;;;;;;5.90;4.78;;;39.10;35.10;;;;;;6084185;23;20009;-83
2023/06/12 11:00:23;;;;;;;9.60;4.47;;;39.10;36.00;;;;;;6091157;23;20084;-83
2023/06/12 11:02:57;;;;;;;5.13;4.68;;;39.40;35.30;;;;;;6069108;23;20092;-84
2023/06/12 11:05:23;;;;;;;5.00;4.53;;;39.50;34.80;;;;;;6089861;23;20047;-84
2023/06/12 11:07:49;;;;;;;6.07;4.38;;;39.80;33.90;;;;;;6116557;23;20024;-84
2023/06/12 11:10:15;;;;;;;5.13;4.72;;;39.70;33.60;;;;;;6117156;23;20515;-84
2023/06/12 11:12:51;;;;;;;5.68;4.35;;;39.60;34.30;;;;;;6093340;23;20014;-83
2023/06/12 11:15:16;;;;;;;5.68;4.70;;;39.60;33.40;;;;;;6093333;23;20383;-84
2023/06/12 11:17:42;;;;;;;4.35;4.05;;;39.70;33.70;;;;;;6093032;23;20043;-84
2023/06/12 11:20:08;;;;;;;4.75;4.28;;;39.70;34.60;;;;;;6093942;23;20024;-84
2023/06/12 11:22:34;;;;;;;4.13;3.80;;;39.80;34.90;;;;;;6095297;23;20021;-84
2023/06/12 11:25:01;;;;;;;4.50;4.10;;;40.00;35.30;;;;;;6093230;23;20021;-82
2023/06/12 11:27:26;;;;;;;5.80;5.18;;;40.50;34.40;;;;;;6092356;23;20010;-83
2023/06/12 11:29:52;;;;;;;5.55;4.35;;;40.50;34.60;;;;;;6092475;23;20084;-83
2023/06/12 11:32:18;;;;;;;5.40;4.90;;;40.70;34.40;;;;;;6091561;23;20013;-83
2023/06/12 11:34:43;;;;;;;6.13;4.22;;;40.90;33.80;;;;;;6090385;23;20076;-82
2023/06/12 11:37:18;;;;;;;4.85;4.00;;;40.80;34.20;;;;;;6094091;23;20013;-82
2023/06/12 11:39:44;;;;;;;;;;;41.00;33.80;;;;;;6095128;23;20461;-81
2023/06/12 11:42:12;;;;;;;6.05;4.80;;;41.40;33.50;;;;;;6093840;23;19916;-82
2023/06/12 11:44:38;;;;;;;6.82;4.50;;;41.70;32.30;;;;;;6118364;23;20013;-82
2023/06/12 11:47:05;;;;;;;5.20;4.10;;;41.80;32.10;;;;;;6093871;23;20018;-82
2023/06/12 11:49:32;;;;;;;8.23;4.63;;;41.80;32.40;;;;;;6118432;23;20084;-81
2023/06/12 11:51:57;;;;;;;5.07;4.63;;;41.90;31.90;;;;;;6092549;23;20017;-81
2023/06/12 11:54:23;;;;;;;4.90;4.50;;;41.80;32.40;;;;;;6094115;23;20096;-81
2023/06/12 11:56:50;;;;;;;6.40;4.93;;;41.60;31.90;;;;;;6092908;23;20017;-82
2023/06/12 11:59:15;;;;;;;4.55;4.15;;;41.40;31.90;;;;;;6095760;23;20097;-82
2023/06/12 12:01:41;;;;;;;4.28;3.97;;;41.20;32.80;;;;;;6118380;23;20040;-82
2023/06/12 12:04:07;;;;;;;4.25;3.92;;;41.00;33.00;;;;;;6118614;23;20029;-82
2023/06/12 12:06:51;;;;;;;6.78;5.22;;;40.90;33.10;;;;;;6116753;23;20021;-82
2023/06/12 12:09:24;;;;;;;5.95;4.60;;;41.10;32.10;;;;;;6069890;23;20352;-82
2023/06/12 12:11:50;;;;;;;5.25;4.85;;;41.30;32.50;;;;;;6070327;23;20017;-82
2023/06/12 12:14:15;;;;;;;5.95;4.60;;;41.50;32.40;;;;;;6094880;23;20140;-81
2023/06/12 12:16:45;;;;;;;5.18;4.70;;;41.60;31.70;;;;;;6079358;23;20065;-82
2023/06/12 12:19:25;;;;;;;7.25;4.95;;;41.60;31.70;;;;;;6066880;23;20037;-82
2023/06/12 12:21:51;;;;;;;5.53;5.03;;;41.50;31.30;;;;;;6121728;23;20017;-83
2023/06/12 12:24:17;;;;;;;5.15;4.65;;;41.20;32.50;;;;;;6118795;23;20040;-83
2023/06/12 12:26:51;;;;;;;6.82;4.90;;;41.00;31.70;;;;;;6093326;23;20045;-83
2023/06/12 12:29:17;;;;;;;8.57;5.72;;;40.80;32.10;;;;;;6093790;23;20009;-81
2023/06/12 12:31:42;;;;;;;4.93;4.40;;;40.60;31.80;;;;;;6090704;23;20336;-82
2023/06/12 12:34:08;;;;;;;6.05;4.90;;;40.50;32.00;;;;;;6118028;23;20345;-82
2023/06/12 12:36:35;;;;;;;7.50;5.38;;;40.20;31.50;;;;;;6087282;23;20013;-82
2023/06/12 12:39:00;;;;;;;6.95;5.43;;;40.00;31.60;;;;;;6092636;23;20024;-81
2023/06/12 12:41:26;;;;;;;7.70;5.35;;;39.90;31.20;;;;;;6117692;23;20010;-82
2023/06/12 12:43:52;;;;;;;6.20;5.45;;;39.80;31.60;;;;;;6118082;23;20685;-82